Dai28sankoumaru — JL6256 — position and weather

sailwx.info

Track history (hours):
 
Tides and Currents Weather Stations Pressure Air Temp Water Temp Dewpoint Dewpoint Depression Visibility Wind Speed Wind Dir Waves Ship Positions

Dai28sankoumaru

Last reported at 2017-Nov-17 19:04 UTC. Time now 2017-Nov-18 12:28 UTC.
Position N 35°24' E 139°46'.

Length 72 m.

Type: Cargo ship. MMSI: 431300156.

Date/timePositionNaut miles runAvg speedWind from/ knotsBaromVisibWave heightAir tempDewpointWater temp
2017-Nov-17 19:04N 35°24' E 139°46'110.3
2017-Nov-17 18:59N 35°23' E 139°46'5 9.8
2017-Nov-17 18:30N 35°18' E 139°45'610.2
2017-Nov-17 17:55N 35°13' E 139°47'410.0
2017-Nov-17 17:30N 35°09' E 139°45'510.1
2017-Nov-17 16:59N 35°05' E 139°41'5 9.7
2017-Nov-17 16:30N 35°01' E 139°37'  
2017-Nov-15 09:15N 34°34' E 135°17'310.5
2017-Nov-15 08:59N 34°36' E 135°19'510.2
2017-Nov-15 08:28N 34°40' E 135°23'3 0.1
2017-Nov-13 21:34N 34°42' E 135°26'  
Track history (hours):
 
Tides and Currents Weather Stations Pressure Air Temp Water Temp Dewpoint Dewpoint Depression Visibility Wind Speed Wind Dir Waves Ship Positions

Dai28sankoumaru

Last reported at 2017-Nov-17 19:04 UTC. Time now 2017-Nov-18 12:28 UTC.
Position N 35°24' E 139°46'.

Length 72 m.

Type: Cargo ship. MMSI: 431300156.

Date/timePositionNaut miles runAvg speedWind from/ knotsBaromVisibWave heightAir tempDewpointWater temp
2017-Nov-17 19:04N 35°24' E 139°46'110.3
2017-Nov-17 18:59N 35°23' E 139°46'5 9.8
2017-Nov-17 18:30N 35°18' E 139°45'610.2
2017-Nov-17 17:55N 35°13' E 139°47'410.0
2017-Nov-17 17:30N 35°09' E 139°45'510.1
2017-Nov-17 16:59N 35°05' E 139°41'5 9.7
2017-Nov-17 16:30N 35°01' E 139°37'  
2017-Nov-15 09:15N 34°34' E 135°17'310.5
2017-Nov-15 08:59N 34°36' E 135°19'510.2
2017-Nov-15 08:28N 34°40' E 135°23'3 0.1
2017-Nov-13 21:34N 34°42' E 135°26'  

Dump ship's entire track history